Time;durP1;ratioP1;P1;durP2;ratioP2;P2;SDS_P1;SDS_P2;PMS_P1;PMS_P2;Temp;Humidity;BMP_temperature;BMP_pressure;BME280_temperature;BME280_humidity;BME280_pressure;Samples;Min_cycle;Max_cycle;Signal;HPM_P1;HPM_P2
2021/05/26 00:01:27;;;;;;;11.60;1.75;;;;;;;;;;3615573;39;20075;-61
2021/05/26 00:03:53;;;;;;;6.15;1.67;;;;;;;;;;3615756;39;20035;-61
2021/05/26 00:06:19;;;;;;;4.78;1.50;;;;;;;;;;3613991;39;20035;-61
2021/05/26 00:08:44;;;;;;;3.83;1.58;;;;;;;;;;3616388;39;20067;-61
2021/05/26 00:11:14;;;;;;;3.83;1.38;;;;;;;;;;3617230;39;20400;-61
2021/05/26 00:13:42;;;;;;;4.18;1.20;;;;;;;;;;3617873;39;20061;-61
2021/05/26 00:16:08;;;;;;;2.78;1.23;;;;;;;;;;3617083;39;20243;-61
2021/05/26 00:18:34;;;;;;;4.57;1.58;;;;;;;;;;3618711;39;20038;-61
2021/05/26 00:21:02;;;;;;;4.72;1.48;;;;;;;;;;3617792;39;20027;-61
2021/05/26 00:23:27;;;;;;;4.63;1.27;;;;;;;;;;3617255;39;20028;-61
2021/05/26 00:25:53;;;;;;;8.50;1.55;;;;;;;;;;3617653;39;20027;-61
2021/05/26 00:28:18;;;;;;;5.63;1.77;;;;;;;;;;3617451;39;20365;-61
2021/05/26 00:30:52;;;;;;;5.28;2.03;;;;;;;;;;3616844;39;20031;-61
2021/05/26 00:33:18;;;;;;;3.85;1.25;;;;;;;;;;3614248;39;20050;-61
2021/05/26 00:35:44;;;;;;;4.15;1.70;;;;;;;;;;3617506;39;20260;-61
2021/05/26 00:38:10;;;;;;;4.45;1.60;;;;;;;;;;3616879;39;20067;-60
2021/05/26 00:40:37;;;;;;;3.47;1.40;;;;;;;;;;3617511;39;20043;-61
2021/05/26 00:43:03;;;;;;;3.38;1.48;;;;;;;;;;3618442;39;20039;-60
2021/05/26 00:45:29;;;;;;;11.43;2.13;;;;;;;;;;3618312;39;20039;-60
2021/05/26 00:47:54;;;;;;;4.97;1.60;;;;;;;;;;3616814;39;20116;-60
2021/05/26 00:50:32;;;;;;;2.80;1.17;;;;;;;;;;3617737;39;20027;-60
2021/05/26 00:52:58;;;;;;;4.72;1.42;;;;;;;;;;3616903;39;20035;-60
2021/05/26 00:55:24;;;;;;;6.07;1.92;;;;;;;;;;3609616;39;20314;-60
2021/05/26 00:57:50;;;;;;;4.55;1.90;;;;;;;;;;3616294;39;20135;-61
2021/05/26 01:00:18;;;;;;;6.80;1.88;;;;;;;;;;3618167;39;20122;-61
2021/05/26 01:02:45;;;;;;;3.38;1.40;;;;;;;;;;3617976;39;20563;-60
2021/05/26 01:05:12;;;;;;;8.38;1.85;;;;;;;;;;3616248;39;20043;-60
2021/05/26 01:07:40;;;;;;;4.88;1.70;;;;;;;;;;3618032;39;20047;-60
2021/05/26 01:10:08;;;;;;;5.80;1.52;;;;;;;;;;3608451;39;20150;-60
2021/05/26 01:12:33;;;;;;;2.83;1.25;;;;;;;;;;3616284;39;20457;-61
2021/05/26 01:15:00;;;;;;;5.18;1.80;;;;;;;;;;3617244;39;20031;-61
2021/05/26 01:17:26;;;;;;;4.25;1.52;;;;;;;;;;3617204;39;20063;-60
2021/05/26 01:19:51;;;;;;;5.35;1.52;;;;;;;;;;3616441;39;20035;-60
2021/05/26 01:22:16;;;;;;;3.90;1.70;;;;;;;;;;3616598;39;20100;-60
2021/05/26 01:24:42;;;;;;;6.25;2.03;;;;;;;;;;3617161;39;20031;-60
2021/05/26 01:27:07;;;;;;;4.97;1.80;;;;;;;;;;3616781;39;20269;-61
2021/05/26 01:29:33;;;;;;;6.70;2.30;;;;;;;;;;3616693;39;20079;-61
2021/05/26 01:31:59;;;;;;;4.50;1.90;;;;;;;;;;3620752;39;20031;-61
2021/05/26 01:34:25;;;;;;;6.75;1.73;;;;;;;;;;3618839;39;20120;-61
2021/05/26 01:36:50;;;;;;;3.72;1.77;;;;;;;;;;3616574;39;20035;-61
2021/05/26 01:39:17;;;;;;;5.95;1.65;;;;;;;;;;3616449;39;20159;-61
2021/05/26 01:41:43;;;;;;;5.65;1.70;;;;;;;;;;3618080;39;20351;-61
2021/05/26 01:44:09;;;;;;;5.50;1.88;;;;;;;;;;3617769;39;20031;-61
2021/05/26 01:46:38;;;;;;;4.28;1.48;;;;;;;;;;3617061;39;20116;-61
2021/05/26 01:49:04;;;;;;;5.63;1.92;;;;;;;;;;3615666;39;20035;-61
2021/05/26 01:51:30;;;;;;;6.18;1.80;;;;;;;;;;3616558;39;20355;-61
2021/05/26 01:53:56;;;;;;;4.22;1.30;;;;;;;;;;3616235;39;20062;-61
2021/05/26 01:56:24;;;;;;;8.73;1.33;;;;;;;;;;3616589;39;20078;-61
2021/05/26 01:58:50;;;;;;;4.88;1.48;;;;;;;;;;3616342;39;20043;-61
2021/05/26 02:01:21;;;;;;;5.78;2.03;;;;;;;;;;3614665;39;20385;-61
2021/05/26 02:03:47;;;;;;;5.47;1.85;;;;;;;;;;3612273;39;20419;-61
2021/05/26 02:06:13;;;;;;;6.43;2.10;;;;;;;;;;3615098;39;20035;-61
2021/05/26 02:08:44;;;;;;;4.43;1.90;;;;;;;;;;3616232;39;20046;-61
2021/05/26 02:14:01;;;;;;;5.72;2.65;;;;;;;;;;3613728;39;20692;-61
2021/05/26 02:16:26;;;;;;;8.27;1.70;;;;;;;;;;3606714;39;20027;-61
2021/05/26 02:18:52;;;;;;;7.68;1.90;;;;;;;;;;3616528;39;20023;-61
2021/05/26 02:21:18;;;;;;;4.90;1.70;;;;;;;;;;3614740;39;20031;-61
2021/05/26 02:23:43;;;;;;;4.22;1.60;;;;;;;;;;3613149;39;20087;-61
2021/05/26 02:26:09;;;;;;;7.45;1.95;;;;;;;;;;3616354;39;20043;-61
2021/05/26 02:28:34;;;;;;;7.00;1.88;;;;;;;;;;3616627;39;20031;-61
2021/05/26 02:31:00;;;;;;;6.80;1.88;;;;;;;;;;3614612;39;20643;-61
2021/05/26 02:33:25;;;;;;;9.25;2.10;;;;;;;;;;3614415;39;20040;-61
2021/05/26 02:35:50;;;;;;;6.65;1.67;;;;;;;;;;3616253;39;20263;-61
2021/05/26 02:38:16;;;;;;;4.10;1.80;;;;;;;;;;3616362;39;20031;-61
2021/05/26 02:40:42;;;;;;;8.55;2.60;;;;;;;;;;3615253;39;20116;-61
2021/05/26 02:43:07;;;;;;;6.90;2.00;;;;;;;;;;3616287;39;20326;-61
2021/05/26 02:45:33;;;;;;;4.88;1.77;;;;;;;;;;3616114;39;20043;-61
2021/05/26 02:47:59;;;;;;;10.48;2.03;;;;;;;;;;3606470;39;20071;-61
2021/05/26 02:50:25;;;;;;;4.45;1.80;;;;;;;;;;3615841;39;20059;-61
2021/05/26 02:52:51;;;;;;;4.25;1.70;;;;;;;;;;3615963;39;20736;-61
2021/05/26 02:55:19;;;;;;;3.92;1.70;;;;;;;;;;3615838;39;20057;-61
2021/05/26 02:57:44;;;;;;;6.35;2.05;;;;;;;;;;3615112;39;20383;-61
2021/05/26 03:00:11;;;;;;;4.93;2.08;;;;;;;;;;3616138;39;20101;-61
2021/05/26 03:02:37;;;;;;;4.78;1.50;;;;;;;;;;3615997;39;20273;-61
2021/05/26 03:05:04;;;;;;;11.90;2.05;;;;;;;;;;3615558;39;20035;-61
2021/05/26 03:07:29;;;;;;;5.53;2.22;;;;;;;;;;3615641;39;20035;-61
2021/05/26 03:09:55;;;;;;;5.80;1.85;;;;;;;;;;3615881;39;20046;-61
2021/05/26 03:12:21;;;;;;;5.78;2.03;;;;;;;;;;3615641;39;20062;-61
2021/05/26 03:14:46;;;;;;;3.60;1.75;;;;;;;;;;3615470;39;20047;-61
2021/05/26 03:17:11;;;;;;;4.43;1.67;;;;;;;;;;3614797;39;20081;-61
2021/05/26 03:19:37;;;;;;;6.00;2.28;;;;;;;;;;3605131;39;20055;-61
2021/05/26 03:22:03;;;;;;;4.13;1.70;;;;;;;;;;3616106;39;20046;-61
2021/05/26 03:24:28;;;;;;;6.47;2.47;;;;;;;;;;3615456;39;20362;-61
2021/05/26 03:26:53;;;;;;;5.65;2.00;;;;;;;;;;3616164;39;20036;-61
2021/05/26 03:29:19;;;;;;;7.32;2.53;;;;;;;;;;3615902;39;20035;-61
2021/05/26 03:31:45;;;;;;;5.18;2.08;;;;;;;;;;3616157;39;20023;-61
2021/05/26 03:34:11;;;;;;;5.03;2.10;;;;;;;;;;3614657;39;20546;-61
2021/05/26 03:36:40;;;;;;;4.50;2.08;;;;;;;;;;3615040;39;20055;-61
2021/05/26 03:39:07;;;;;;;6.97;1.92;;;;;;;;;;3606403;39;20836;-62
2021/05/26 03:41:33;;;;;;;6.75;2.25;;;;;;;;;;3614070;39;20042;-62
2021/05/26 03:43:58;;;;;;;7.35;2.00;;;;;;;;;;3616548;39;20082;-62
2021/05/26 03:46:24;;;;;;;7.95;2.28;;;;;;;;;;3607668;39;20046;-62
2021/05/26 03:48:50;;;;;;;5.32;2.05;;;;;;;;;;3608061;39;20046;-63
2021/05/26 03:51:16;;;;;;;6.43;1.48;;;;;;;;;;3616678;39;20310;-62
2021/05/26 03:53:41;;;;;;;4.35;2.15;;;;;;;;;;3616623;39;20050;-63
2021/05/26 03:56:07;;;;;;;5.55;1.75;;;;;;;;;;3616915;39;20259;-62
2021/05/26 03:58:34;;;;;;;5.47;2.25;;;;;;;;;;3616474;39;20076;-62
2021/05/26 04:00:59;;;;;;;6.93;2.10;;;;;;;;;;3616842;39;20078;-63
2021/05/26 04:03:25;;;;;;;9.15;2.50;;;;;;;;;;3616686;39;20031;-63
2021/05/26 04:05:50;;;;;;;5.18;2.35;;;;;;;;;;3607808;39;20072;-63
2021/05/26 04:08:16;;;;;;;5.95;2.20;;;;;;;;;;3616264;39;20035;-63
2021/05/26 04:10:41;;;;;;;6.55;2.13;;;;;;;;;;3617085;39;20043;-63
2021/05/26 04:13:06;;;;;;;8.77;2.47;;;;;;;;;;3617566;39;20035;-63
2021/05/26 04:15:32;;;;;;;10.73;2.30;;;;;;;;;;3616661;39;20043;-63
2021/05/26 04:18:05;;;;;;;12.45;2.00;;;;;;;;;;3616735;39;20043;-63
2021/05/26 04:20:30;;;;;;;5.55;2.30;;;;;;;;;;3616342;39;20589;-63
2021/05/26 04:22:55;;;;;;;8.80;2.42;;;;;;;;;;3616248;39;20039;-63
2021/05/26 04:25:21;;;;;;;6.32;2.05;;;;;;;;;;3617062;39;20142;-64
2021/05/26 04:27:46;;;;;;;4.80;2.00;;;;;;;;;;3607591;39;20042;-63
2021/05/26 04:30:12;;;;;;;6.95;2.15;;;;;;;;;;3616952;39;20042;-63
2021/05/26 04:32:37;;;;;;;8.65;2.15;;;;;;;;;;3615606;39;20372;-63
2021/05/26 04:35:03;;;;;;;7.90;2.42;;;;;;;;;;3616627;39;20039;-63
2021/05/26 04:37:29;;;;;;;4.97;2.42;;;;;;;;;;3616414;39;20039;-63
2021/05/26 04:39:54;;;;;;;7.93;2.25;;;;;;;;;;3616142;39;20089;-63
2021/05/26 04:42:20;;;;;;;8.20;2.38;;;;;;;;;;3616537;39;20031;-63
2021/05/26 04:44:45;;;;;;;6.55;2.25;;;;;;;;;;3616539;39;20043;-63
2021/05/26 04:47:11;;;;;;;5.35;2.60;;;;;;;;;;3617442;39;20032;-64
2021/05/26 04:49:36;;;;;;;6.18;3.03;;;;;;;;;;3616546;39;20147;-64
2021/05/26 04:52:02;;;;;;;7.38;2.70;;;;;;;;;;3607669;39;20263;-64
2021/05/26 04:54:27;;;;;;;10.35;2.33;;;;;;;;;;3616373;39;20035;-64
2021/05/26 04:56:53;;;;;;;8.23;2.67;;;;;;;;;;3607672;39;20050;-64
2021/05/26 04:59:18;;;;;;;9.57;2.67;;;;;;;;;;3616914;39;20047;-64
2021/05/26 05:01:44;;;;;;;10.02;2.83;;;;;;;;;;3616821;39;20043;-63
2021/05/26 05:04:09;;;;;;;5.07;2.40;;;;;;;;;;3617131;39;20047;-64
2021/05/26 05:06:34;;;;;;;5.10;2.33;;;;;;;;;;3614125;39;20051;-63
2021/05/26 05:09:00;;;;;;;5.30;2.20;;;;;;;;;;3616619;39;20031;-63
2021/05/26 05:11:25;;;;;;;7.70;2.78;;;;;;;;;;3607597;39;20047;-63
2021/05/26 05:13:51;;;;;;;5.80;2.53;;;;;;;;;;3616217;39;20046;-63
2021/05/26 05:16:17;;;;;;;8.20;3.63;;;;;;;;;;3615959;39;20024;-63
2021/05/26 05:18:42;;;;;;;8.30;2.72;;;;;;;;;;3616188;39;20424;-63
2021/05/26 05:21:08;;;;;;;7.95;2.55;;;;;;;;;;3616418;39;20068;-63
2021/05/26 05:23:34;;;;;;;10.10;2.70;;;;;;;;;;3616108;39;20043;-63
2021/05/26 05:26:01;;;;;;;4.95;2.28;;;;;;;;;;3617216;39;20027;-63
2021/05/26 05:28:26;;;;;;;6.32;2.78;;;;;;;;;;3617022;39;20035;-63
2021/05/26 05:30:51;;;;;;;5.78;2.85;;;;;;;;;;3614475;39;20271;-63
2021/05/26 05:33:17;;;;;;;6.10;2.25;;;;;;;;;;3615364;39;20279;-63
2021/05/26 05:35:42;;;;;;;5.15;2.28;;;;;;;;;;3614912;39;20028;-64
2021/05/26 05:38:08;;;;;;;6.75;2.63;;;;;;;;;;3616110;39;20035;-64
2021/05/26 05:40:34;;;;;;;6.68;2.72;;;;;;;;;;3607071;39;20057;-64
2021/05/26 05:42:59;;;;;;;8.32;2.78;;;;;;;;;;3615929;39;20363;-64
2021/05/26 05:45:25;;;;;;;7.03;2.95;;;;;;;;;;3615624;39;20043;-64
2021/05/26 05:47:50;;;;;;;6.50;2.90;;;;;;;;;;3616132;39;20027;-63
2021/05/26 05:50:16;;;;;;;8.40;3.33;;;;;;;;;;3615317;39;20160;-63
2021/05/26 05:52:48;;;;;;;6.22;2.58;;;;;;;;;;3605385;39;20042;-63
2021/05/26 05:55:14;;;;;;;8.07;2.90;;;;;;;;;;3612115;39;20062;-63
2021/05/26 05:57:40;;;;;;;5.18;2.53;;;;;;;;;;3615723;39;20042;-63
2021/05/26 06:00:08;;;;;;;8.13;3.15;;;;;;;;;;3616468;39;20077;-63
2021/05/26 06:02:34;;;;;;;5.72;2.90;;;;;;;;;;3616319;39;20171;-63
2021/05/26 06:04:59;;;;;;;6.53;2.30;;;;;;;;;;3616409;39;20361;-63
2021/05/26 06:07:25;;;;;;;10.45;3.08;;;;;;;;;;3615726;39;20027;-63
2021/05/26 06:09:51;;;;;;;7.40;2.65;;;;;;;;;;3616680;39;20054;-63
2021/05/26 06:12:18;;;;;;;6.20;2.75;;;;;;;;;;3616772;39;20063;-63
2021/05/26 06:14:43;;;;;;;5.00;2.53;;;;;;;;;;3616001;39;20023;-63
2021/05/26 06:17:08;;;;;;;9.15;2.85;;;;;;;;;;3616685;39;20038;-63
2021/05/26 06:19:34;;;;;;;16.83;3.55;;;;;;;;;;3616188;39;20478;-63
2021/05/26 06:21:59;;;;;;;6.38;2.70;;;;;;;;;;3616729;39;20028;-63
2021/05/26 06:24:25;;;;;;;11.05;3.30;;;;;;;;;;3615784;39;20116;-63
2021/05/26 06:26:50;;;;;;;5.55;3.25;;;;;;;;;;3616272;39;20428;-63
2021/05/26 06:29:15;;;;;;;8.43;2.97;;;;;;;;;;3615172;39;20042;-63
2021/05/26 06:31:41;;;;;;;3.83;1.90;;;;;;;;;;3615576;39;20278;-63
2021/05/26 06:34:06;;;;;;;5.93;2.13;;;;;;;;;;3615657;39;20020;-63
2021/05/26 06:36:33;;;;;;;5.40;2.20;;;;;;;;;;3606398;39;20035;-63
2021/05/26 06:38:59;;;;;;;6.15;2.13;;;;;;;;;;3616300;39;20046;-63
2021/05/26 06:41:25;;;;;;;6.38;2.00;;;;;;;;;;3614842;39;20043;-63
2021/05/26 06:43:50;;;;;;;14.13;4.03;;;;;;;;;;3616066;39;20042;-63
2021/05/26 06:46:16;;;;;;;5.07;1.92;;;;;;;;;;3615816;39;20039;-63
2021/05/26 06:48:41;;;;;;;7.30;2.78;;;;;;;;;;3614964;39;20035;-63
2021/05/26 06:51:06;;;;;;;8.77;2.35;;;;;;;;;;3614734;39;20068;-63
2021/05/26 06:53:32;;;;;;;7.40;2.55;;;;;;;;;;3614606;39;20209;-63
2021/05/26 06:55:57;;;;;;;5.32;2.20;;;;;;;;;;3616294;39;20035;-64
2021/05/26 06:58:22;;;;;;;7.53;2.55;;;;;;;;;;3613246;39;20039;-63
2021/05/26 07:00:48;;;;;;;7.88;2.22;;;;;;;;;;3606700;39;20031;-63
2021/05/26 07:03:14;;;;;;;8.15;2.65;;;;;;;;;;3614296;39;20550;-63
2021/05/26 07:05:39;;;;;;;8.48;2.50;;;;;;;;;;3614138;39;20042;-63
2021/05/26 07:08:05;;;;;;;6.13;2.53;;;;;;;;;;3616244;39;20043;-63
2021/05/26 07:10:31;;;;;;;7.22;2.67;;;;;;;;;;3614547;39;20044;-63
2021/05/26 07:12:57;;;;;;;5.53;2.08;;;;;;;;;;3615532;39;20527;-63
2021/05/26 07:15:22;;;;;;;8.98;1.98;;;;;;;;;;3615578;39;20089;-63
2021/05/26 07:17:47;;;;;;;4.80;1.98;;;;;;;;;;3617090;39;20035;-63
2021/05/26 07:20:14;;;;;;;4.45;1.77;;;;;;;;;;3618501;39;20042;-64
2021/05/26 07:22:39;;;;;;;8.23;2.15;;;;;;;;;;3618199;39;20353;-64
2021/05/26 07:25:05;;;;;;;7.68;2.50;;;;;;;;;;3617446;39;20041;-63
2021/05/26 07:27:31;;;;;;;5.15;2.25;;;;;;;;;;3618211;39;20031;-63
2021/05/26 07:29:56;;;;;;;5.93;2.03;;;;;;;;;;3618083;39;20034;-63
2021/05/26 07:32:22;;;;;;;7.38;2.13;;;;;;;;;;3616906;39;20083;-63
2021/05/26 07:34:47;;;;;;;9.93;2.17;;;;;;;;;;3618612;39;20041;-63
2021/05/26 07:37:13;;;;;;;5.10;1.77;;;;;;;;;;3617690;39;20034;-63
2021/05/26 07:39:38;;;;;;;10.15;2.50;;;;;;;;;;3609462;39;20128;-63
2021/05/26 07:42:06;;;;;;;5.38;1.95;;;;;;;;;;3618056;39;20045;-63
2021/05/26 07:44:32;;;;;;;5.35;2.22;;;;;;;;;;3618783;39;20034;-63
2021/05/26 07:46:57;;;;;;;6.00;2.08;;;;;;;;;;3618350;39;20030;-63
2021/05/26 07:49:23;;;;;;;5.13;1.63;;;;;;;;;;3619164;39;20370;-63
2021/05/26 07:51:54;;;;;;;7.28;1.88;;;;;;;;;;3617560;39;20044;-63
2021/05/26 07:54:22;;;;;;;6.20;1.45;;;;;;;;;;3618281;39;20043;-63
2021/05/26 07:56:48;;;;;;;5.60;1.77;;;;;;;;;;3609498;39;20059;-63
2021/05/26 07:59:13;;;;;;;6.70;2.17;;;;;;;;;;3617812;39;20043;-63
2021/05/26 08:01:39;;;;;;;8.38;1.85;;;;;;;;;;3617549;39;20027;-63
2021/05/26 08:04:04;;;;;;;8.30;1.70;;;;;;;;;;3618217;39;20057;-64
2021/05/26 08:06:31;;;;;;;3.85;1.55;;;;;;;;;;3617837;39;20112;-64
2021/05/26 08:08:57;;;;;;;4.72;1.63;;;;;;;;;;3615394;39;20079;-64
2021/05/26 08:11:22;;;;;;;11.32;1.80;;;;;;;;;;3614735;39;20088;-63
2021/05/26 08:13:48;;;;;;;5.28;1.75;;;;;;;;;;3617781;39;20058;-63
2021/05/26 08:16:13;;;;;;;4.00;1.35;;;;;;;;;;3617076;39;20043;-63
2021/05/26 08:18:39;;;;;;;7.38;2.17;;;;;;;;;;3618744;39;20039;-63
2021/05/26 08:21:04;;;;;;;8.65;1.77;;;;;;;;;;3618763;39;20271;-63
2021/05/26 08:23:30;;;;;;;4.63;2.00;;;;;;;;;;3618429;39;20106;-63
2021/05/26 08:25:55;;;;;;;7.10;2.20;;;;;;;;;;3618096;39;20038;-63
2021/05/26 08:28:21;;;;;;;4.43;1.58;;;;;;;;;;3618176;39;20464;-63
2021/05/26 08:30:46;;;;;;;7.28;1.63;;;;;;;;;;3616613;39;20973;-63
2021/05/26 08:33:12;;;;;;;4.05;1.50;;;;;;;;;;3617031;39;20035;-63
2021/05/26 08:35:37;;;;;;;5.72;1.60;;;;;;;;;;3607020;39;20039;-63
2021/05/26 08:38:03;;;;;;;5.50;1.83;;;;;;;;;;3617820;39;20042;-63
2021/05/26 08:40:30;;;;;;;4.80;1.73;;;;;;;;;;3616718;39;20061;-63
2021/05/26 08:42:55;;;;;;;3.83;1.42;;;;;;;;;;3616942;39;20046;-63
2021/05/26 08:45:21;;;;;;;5.30;1.70;;;;;;;;;;3616238;39;20265;-63
2021/05/26 08:47:51;;;;;;;6.93;1.50;;;;;;;;;;3617213;39;20069;-63
2021/05/26 08:50:17;;;;;;;7.50;1.40;;;;;;;;;;3607017;39;20354;-63
2021/05/26 08:52:42;;;;;;;6.28;1.70;;;;;;;;;;3616218;39;20027;-63
2021/05/26 08:55:13;;;;;;;6.32;1.63;;;;;;;;;;3617573;39;20086;-62
2021/05/26 08:57:38;;;;;;;4.13;1.70;;;;;;;;;;3616719;39;20047;-63
2021/05/26 09:00:06;;;;;;;3.97;1.48;;;;;;;;;;3616991;39;20039;-62
2021/05/26 09:02:31;;;;;;;6.63;2.30;;;;;;;;;;3615483;39;20093;-62
2021/05/26 09:04:57;;;;;;;4.93;1.70;;;;;;;;;;3615049;39;20035;-63
2021/05/26 09:07:24;;;;;;;4.78;2.05;;;;;;;;;;3616869;39;20205;-62
2021/05/26 09:09:54;;;;;;;5.50;1.77;;;;;;;;;;3616233;39;20059;-62
2021/05/26 09:12:43;;;;;;;5.57;1.67;;;;;;;;;;3607604;39;20136;-62
2021/05/26 09:15:20;;;;;;;5.97;1.55;;;;;;;;;;3616365;39;20042;-62
2021/05/26 09:17:56;;;;;;;5.20;1.70;;;;;;;;;;3616153;39;20041;-63
2021/05/26 09:20:25;;;;;;;4.05;1.40;;;;;;;;;;3615337;39;20031;-61
2021/05/26 09:23:02;;;;;;;4.70;1.52;;;;;;;;;;3616596;39;20571;-62
2021/05/26 09:25:30;;;;;;;4.32;1.30;;;;;;;;;;3615724;39;20036;-63
2021/05/26 09:28:14;;;;;;;3.42;1.38;;;;;;;;;;3616100;39;20031;-62
2021/05/26 09:30:40;;;;;;;5.50;1.95;;;;;;;;;;3616159;39;20027;-62
2021/05/26 09:33:41;;;;;;;3.55;1.10;;;;;;;;;;3616670;39;20031;-62
2021/05/26 09:36:26;;;;;;;2.90;1.35;;;;;;;;;;3616629;39;20479;-62
2021/05/26 09:38:54;;;;;;;4.45;1.50;;;;;;;;;;3616169;39;20051;-62
2021/05/26 09:41:26;;;;;;;8.23;2.40;;;;;;;;;;3615511;39;20043;-63
2021/05/26 09:43:56;;;;;;;8.98;5.32;;;;;;;;;;3615991;39;20031;-62
2021/05/26 09:46:38;;;;;;;3.85;1.38;;;;;;;;;;3607583;39;20038;-63
2021/05/26 09:49:05;;;;;;;3.95;1.42;;;;;;;;;;3606862;39;20059;-63
2021/05/26 09:51:35;;;;;;;3.97;1.60;;;;;;;;;;3606940;39;20028;-63
2021/05/26 09:54:28;;;;;;;4.55;2.08;;;;;;;;;;3615511;39;20371;-63
2021/05/26 09:57:05;;;;;;;4.55;1.48;;;;;;;;;;3615661;39;20127;-62
2021/05/26 09:59:32;;;;;;;4.05;1.40;;;;;;;;;;3606417;39;20132;-62
2021/05/26 10:01:58;;;;;;;4.40;1.40;;;;;;;;;;3615412;39;20339;-62
2021/05/26 10:04:25;;;;;;;4.97;1.77;;;;;;;;;;3616066;39;20298;-63
2021/05/26 10:06:53;;;;;;;6.18;1.60;;;;;;;;;;3615760;39;20027;-64
2021/05/26 10:09:21;;;;;;;9.40;1.98;;;;;;;;;;3615698;39;20045;-64
2021/05/26 10:11:50;;;;;;;4.90;1.45;;;;;;;;;;3616049;39;20135;-64
2021/05/26 10:14:16;;;;;;;3.45;1.40;;;;;;;;;;3615451;39;20047;-64
2021/05/26 10:16:43;;;;;;;5.55;1.80;;;;;;;;;;3604977;39;20396;-64
2021/05/26 10:19:13;;;;;;;3.75;1.42;;;;;;;;;;3616227;39;20028;-64
2021/05/26 10:21:40;;;;;;;4.35;1.55;;;;;;;;;;3615576;39;20034;-64
2021/05/26 10:24:07;;;;;;;3.97;1.60;;;;;;;;;;3616160;39;20039;-64
2021/05/26 10:26:47;;;;;;;7.47;1.67;;;;;;;;;;3616093;39;20072;-64
2021/05/26 10:29:25;;;;;;;6.00;1.50;;;;;;;;;;3616166;39;20267;-64
2021/05/26 10:31:50;;;;;;;5.18;2.53;;;;;;;;;;3606673;39;20292;-64
2021/05/26 10:34:16;;;;;;;4.60;2.58;;;;;;;;;;3616150;39;20039;-64
2021/05/26 10:36:52;;;;;;;6.38;3.05;;;;;;;;;;3616433;39;20032;-64
2021/05/26 10:39:30;;;;;;;5.22;3.47;;;;;;;;;;3616017;39;20031;-63
2021/05/26 10:41:56;;;;;;;8.38;4.72;;;;;;;;;;3614452;39;20048;-63
2021/05/26 10:44:21;;;;;;;5.97;3.88;;;;;;;;;;3616534;39;20035;-64
2021/05/26 10:46:49;;;;;;;6.65;4.30;;;;;;;;;;3615861;39;20366;-64
2021/05/26 10:49:15;;;;;;;12.07;4.65;;;;;;;;;;3615101;39;20317;-64
2021/05/26 10:51:53;;;;;;;8.02;4.57;;;;;;;;;;3615270;39;20122;-64
2021/05/26 10:54:40;;;;;;;8.35;3.75;;;;;;;;;;3603430;39;20043;-64
2021/05/26 10:57:07;;;;;;;6.55;3.45;;;;;;;;;;3616426;39;20048;-64
2021/05/26 10:59:34;;;;;;;7.18;4.15;;;;;;;;;;3615758;39;20149;-64
2021/05/26 11:02:02;;;;;;;8.70;4.00;;;;;;;;;;3613291;39;20343;-63
2021/05/26 11:04:28;;;;;;;5.13;2.85;;;;;;;;;;3614798;39;20043;-64
2021/05/26 11:07:33;;;;;;;6.28;3.45;;;;;;;;;;3615487;39;20059;-64
2021/05/26 11:10:05;;;;;;;5.47;3.10;;;;;;;;;;3610365;39;20051;-64
2021/05/26 11:12:57;;;;;;;6.57;3.40;;;;;;;;;;3614935;39;20039;-64
2021/05/26 11:15:45;;;;;;;12.05;3.08;;;;;;;;;;3614285;39;20047;-64
2021/05/26 11:18:29;;;;;;;6.65;3.22;;;;;;;;;;3613409;39;20054;-64
2021/05/26 11:20:54;;;;;;;11.60;3.20;;;;;;;;;;3614587;39;20420;-64
2021/05/26 11:23:20;;;;;;;6.07;3.35;;;;;;;;;;3614631;39;20059;-64
2021/05/26 11:25:54;;;;;;;4.90;3.00;;;;;;;;;;3614821;39;20067;-64
2021/05/26 11:28:32;;;;;;;5.43;2.95;;;;;;;;;;3612959;39;20026;-65
2021/05/26 11:31:08;;;;;;;7.53;3.15;;;;;;;;;;3615430;39;20035;-66
2021/05/26 11:33:35;;;;;;;4.63;2.88;;;;;;;;;;3606059;39;20043;-66
2021/05/26 11:36:09;;;;;;;5.20;2.88;;;;;;;;;;3615012;39;20342;-65
2021/05/26 11:38:34;;;;;;;5.45;2.70;;;;;;;;;;3614791;39;20035;-65
2021/05/26 11:41:01;;;;;;;6.90;2.92;;;;;;;;;;3614996;39;20328;-65
2021/05/26 11:43:30;;;;;;;4.22;2.30;;;;;;;;;;3614688;39;20086;-65
2021/05/26 11:46:10;;;;;;;8.10;3.10;;;;;;;;;;3614732;39;20028;-65
2021/05/26 11:48:36;;;;;;;6.65;2.75;;;;;;;;;;3614684;39;20039;-65
2021/05/26 11:51:02;;;;;;;5.05;2.67;;;;;;;;;;3614864;39;20027;-64
2021/05/26 11:53:28;;;;;;;6.47;2.83;;;;;;;;;;3612396;39;20075;-64
2021/05/26 11:56:00;;;;;;;5.55;2.03;;;;;;;;;;3614280;39;20054;-64
2021/05/26 11:58:38;;;;;;;6.65;2.15;;;;;;;;;;3604957;39;20312;-64
2021/05/26 12:01:10;;;;;;;6.32;1.98;;;;;;;;;;3614342;39;20063;-63
2021/05/26 12:03:36;;;;;;;4.07;1.70;;;;;;;;;;3613597;39;20051;-64
2021/05/26 12:06:02;;;;;;;3.95;1.63;;;;;;;;;;3615494;39;20427;-63
2021/05/26 12:08:33;;;;;;;5.03;1.70;;;;;;;;;;3616739;39;20043;-64
2021/05/26 12:11:04;;;;;;;4.03;1.75;;;;;;;;;;3615337;39;20359;-64
2021/05/26 12:13:34;;;;;;;4.57;2.38;;;;;;;;;;3615024;39;20035;-64
2021/05/26 12:16:04;;;;;;;4.30;2.37;;;;;;;;;;3616775;39;20027;-66
2021/05/26 12:18:30;;;;;;;4.68;1.80;;;;;;;;;;3616945;39;20379;-65
2021/05/26 12:20:57;;;;;;;6.88;1.63;;;;;;;;;;3616505;39;20032;-64
2021/05/26 12:23:43;;;;;;;2.95;1.48;;;;;;;;;;3615849;39;20436;-65
2021/05/26 12:26:25;;;;;;;3.65;1.20;;;;;;;;;;3616779;39;20158;-65
2021/05/26 12:28:56;;;;;;;7.78;1.83;;;;;;;;;;3613666;39;20119;-64
2021/05/26 12:31:22;;;;;;;3.42;1.40;;;;;;;;;;3615579;39;20047;-64
2021/05/26 12:33:51;;;;;;;3.38;1.52;;;;;;;;;;3616138;39;20035;-64
2021/05/26 12:36:17;;;;;;;3.50;1.70;;;;;;;;;;3615894;39;20336;-65
2021/05/26 12:38:44;;;;;;;3.75;2.05;;;;;;;;;;3610276;39;20024;-65
2021/05/26 12:41:23;;;;;;;3.70;1.50;;;;;;;;;;3610599;39;20114;-65
2021/05/26 12:43:50;;;;;;;2.22;1.15;;;;;;;;;;3618075;39;20373;-65
2021/05/26 12:46:34;;;;;;;3.03;1.30;;;;;;;;;;3615859;39;20043;-65
2021/05/26 12:48:59;;;;;;;4.03;1.45;;;;;;;;;;3617359;39;20447;-64
2021/05/26 12:51:25;;;;;;;2.40;1.13;;;;;;;;;;3619523;39;20083;-64
2021/05/26 12:53:57;;;;;;;4.25;1.77;;;;;;;;;;3617022;39;20051;-64
2021/05/26 12:56:24;;;;;;;7.72;2.22;;;;;;;;;;3615668;39;20058;-64
2021/05/26 12:58:49;;;;;;;3.17;1.42;;;;;;;;;;3616590;39;20059;-65
2021/05/26 13:01:15;;;;;;;3.53;1.83;;;;;;;;;;3618325;39;20035;-63
2021/05/26 13:03:41;;;;;;;3.03;1.70;;;;;;;;;;3619878;39;20736;-62
2021/05/26 13:06:17;;;;;;;3.65;1.92;;;;;;;;;;3617813;39;20071;-62
2021/05/26 13:09:00;;;;;;;5.25;2.70;;;;;;;;;;3617004;39;20043;-64
2021/05/26 13:11:46;;;;;;;3.17;1.92;;;;;;;;;;3615715;39;20024;-64
2021/05/26 13:14:12;;;;;;;3.80;2.15;;;;;;;;;;3615963;39;20055;-63
2021/05/26 13:16:41;;;;;;;5.68;2.50;;;;;;;;;;3617898;39;20054;-64
2021/05/26 13:19:07;;;;;;;4.97;2.30;;;;;;;;;;3616598;39;20282;-65
2021/05/26 13:21:43;;;;;;;4.32;2.33;;;;;;;;;;3614757;39;20048;-63
2021/05/26 13:24:09;;;;;;;6.78;2.70;;;;;;;;;;3617174;39;20039;-65
2021/05/26 13:26:34;;;;;;;9.05;2.40;;;;;;;;;;3618619;39;20034;-64
2021/05/26 13:28:59;;;;;;;4.75;2.60;;;;;;;;;;3618217;39;20023;-62
2021/05/26 13:31:25;;;;;;;6.60;2.92;;;;;;;;;;3603315;39;20039;-60
2021/05/26 13:33:51;;;;;;;4.32;2.28;;;;;;;;;;3616763;39;20124;-63
2021/05/26 13:36:16;;;;;;;5.28;2.65;;;;;;;;;;3616963;39;20116;-63
2021/05/26 13:38:42;;;;;;;3.85;2.13;;;;;;;;;;3616398;39;20039;-63
2021/05/26 13:41:07;;;;;;;6.68;2.40;;;;;;;;;;3616156;39;20057;-63
2021/05/26 13:43:32;;;;;;;5.57;3.13;;;;;;;;;;3616323;39;20057;-64
2021/05/26 13:45:58;;;;;;;5.10;2.67;;;;;;;;;;3615010;39;20039;-63
2021/05/26 13:48:23;;;;;;;6.40;2.67;;;;;;;;;;3614579;39;20026;-64
2021/05/26 13:50:49;;;;;;;4.40;1.98;;;;;;;;;;3615579;39;20031;-64
2021/05/26 13:53:14;;;;;;;2.72;1.48;;;;;;;;;;3615395;39;20071;-63
2021/05/26 13:55:41;;;;;;;4.65;2.15;;;;;;;;;;3615211;39;20031;-61
2021/05/26 13:58:07;;;;;;;4.70;2.30;;;;;;;;;;3616108;39;20035;-62
2021/05/26 14:00:34;;;;;;;4.18;2.55;;;;;;;;;;3615728;39;20054;-62
2021/05/26 14:03:00;;;;;;;4.20;2.33;;;;;;;;;;3615109;39;20024;-62
2021/05/26 14:05:26;;;;;;;3.22;1.90;;;;;;;;;;3614723;39;20075;-62
2021/05/26 14:07:52;;;;;;;7.25;4.07;;;;;;;;;;3615777;39;20040;-62
2021/05/26 14:10:20;;;;;;;6.70;4.50;;;;;;;;;;3614176;39;20032;-63
2021/05/26 14:12:53;;;;;;;5.35;3.60;;;;;;;;;;3615924;39;20445;-63
2021/05/26 14:15:19;;;;;;;3.38;1.10;;;;;;;;;;3614625;39;20036;-62
2021/05/26 14:17:45;;;;;;;5.97;4.03;;;;;;;;;;3615607;39;20035;-63
2021/05/26 14:20:13;;;;;;;3.83;1.50;;;;;;;;;;3617845;39;20050;-63
2021/05/26 14:22:38;;;;;;;4.25;2.30;;;;;;;;;;3614685;39;20055;-63
2021/05/26 14:25:05;;;;;;;4.45;1.83;;;;;;;;;;3618444;39;20024;-63
2021/05/26 14:27:31;;;;;;;6.32;3.80;;;;;;;;;;3616852;39;20048;-63
2021/05/26 14:29:56;;;;;;;3.33;1.30;;;;;;;;;;3608151;39;20259;-62
2021/05/26 14:32:22;;;;;;;2.42;1.00;;;;;;;;;;3614910;39;20137;-63
2021/05/26 14:34:48;;;;;;;1.30;0.63;;;;;;;;;;3615627;39;20366;-63
2021/05/26 14:37:23;;;;;;;2.13;0.77;;;;;;;;;;3616066;39;20497;-63
2021/05/26 14:39:50;;;;;;;1.45;0.77;;;;;;;;;;3615749;39;20576;-65
2021/05/26 14:42:20;;;;;;;4.30;0.90;;;;;;;;;;3614571;39;20080;-64
2021/05/26 14:44:46;;;;;;;2.83;0.90;;;;;;;;;;3615604;39;20143;-64
2021/05/26 14:47:12;;;;;;;1.23;0.70;;;;;;;;;;3616497;39;20484;-65
2021/05/26 14:49:37;;;;;;;2.17;1.02;;;;;;;;;;3615115;39;20050;-66